createdAt,value
2019-05-22T00:04:18.358Z,12.56
2019-05-22T00:09:24.692Z,12.47
2019-05-22T00:14:29.526Z,12.45
2019-05-22T00:19:36.822Z,12.49
2019-05-22T00:24:44.394Z,12.48
2019-05-22T00:29:51.306Z,12.41
2019-05-22T00:34:56.906Z,12.32
2019-05-22T00:40:04.166Z,12.18
2019-05-22T00:45:13.041Z,12.14
2019-05-22T00:50:22.328Z,12.12
2019-05-22T00:55:33.968Z,11.99
2019-05-22T01:00:49.732Z,11.80
2019-05-22T01:05:55.628Z,11.92
2019-05-22T01:11:01.226Z,12.00
2019-05-22T01:16:07.573Z,11.99
2019-05-22T01:21:15.058Z,11.92
2019-05-22T01:26:21.574Z,11.96
2019-05-22T01:31:27.887Z,11.72
2019-05-22T01:36:35.230Z,11.67
2019-05-22T01:41:41.851Z,11.55
2019-05-22T01:46:46.417Z,11.70
2019-05-22T01:51:51.509Z,11.82
2019-05-22T01:56:57.787Z,11.87
2019-05-22T02:02:04.525Z,11.78
2019-05-22T02:07:10.029Z,11.83
2019-05-22T02:12:28.111Z,11.81
2019-05-22T02:17:35.761Z,11.87
2019-05-22T02:22:40.940Z,11.70
2019-05-22T02:27:47.541Z,11.72
2019-05-22T02:32:53.077Z,11.67
2019-05-22T02:37:58.862Z,11.66
2019-05-22T02:43:03.856Z,11.74
2019-05-22T02:48:09.563Z,11.69
2019-05-22T02:53:15.074Z,11.67
2019-05-22T02:58:21.250Z,11.63
2019-05-22T03:03:26.991Z,11.63
2019-05-22T03:08:54.671Z,11.60
2019-05-22T03:14:03.664Z,11.63
2019-05-22T03:19:10.622Z,11.59
2019-05-22T03:24:16.215Z,11.56
2019-05-22T03:29:24.141Z,11.63
2019-05-22T03:34:29.160Z,11.73
2019-05-22T03:39:34.907Z,11.90
2019-05-22T03:44:41.049Z,11.95
2019-05-22T03:49:46.779Z,12.06
2019-05-22T03:54:52.524Z,12.25
2019-05-22T03:59:57.882Z,13.48
2019-05-22T04:05:03.270Z,14.67
2019-05-22T04:10:10.479Z,16.03
2019-05-22T04:15:15.822Z,16.99
2019-05-22T04:20:22.015Z,18.06
2019-05-22T04:25:26.956Z,19.03
2019-05-22T04:30:32.394Z,18.77
2019-05-22T04:35:40.355Z,18.24
2019-05-22T04:40:48.954Z,18.66
2019-05-22T04:45:54.198Z,20.50
2019-05-22T04:51:02.240Z,21.12
2019-05-22T04:56:07.347Z,20.96
2019-05-22T05:01:12.175Z,21.89
2019-05-22T05:06:18.359Z,21.01
2019-05-22T05:11:23.003Z,18.74
2019-05-22T05:16:27.680Z,20.69
2019-05-22T05:21:32.489Z,22.52
2019-05-22T05:26:37.694Z,23.13
2019-05-22T05:31:42.457Z,23.93
2019-05-22T05:36:47.753Z,22.74
2019-05-22T05:41:53.001Z,24.02
2019-05-22T05:46:57.829Z,24.76
2019-05-22T05:52:03.897Z,25.64
2019-05-22T05:57:38.665Z,25.16
2019-05-22T06:02:56.059Z,25.73
2019-05-22T06:07:49.940Z,26.47
2019-05-22T06:12:54.725Z,26.06
2019-05-22T06:18:28.076Z,25.33
2019-05-22T06:23:42.472Z,21.75
2019-05-22T06:28:47.994Z,21.81
2019-05-22T06:33:52.676Z,22.43
2019-05-22T06:39:00.941Z,21.71
2019-05-22T06:44:36.923Z,21.47
2019-05-22T06:49:43.972Z,22.95
2019-05-22T06:54:49.017Z,23.01
2019-05-22T07:00:11.301Z,23.25
2019-05-22T07:05:00.632Z,24.79
2019-05-22T07:10:06.981Z,26.84
2019-05-22T07:15:23.189Z,28.11
2019-05-22T07:20:31.113Z,28.47
2019-05-22T07:25:37.581Z,28.55
2019-05-22T07:30:42.347Z,29.56
2019-05-22T07:36:07.745Z,29.84
2019-05-22T07:40:54.089Z,29.42
2019-05-22T07:45:58.978Z,26.30
2019-05-22T07:51:04.050Z,28.64
2019-05-22T07:56:10.306Z,29.13
2019-05-22T08:01:18.201Z,28.12
2019-05-22T08:06:23.083Z,26.31
2019-05-22T08:11:28.032Z,24.92
2019-05-22T08:16:33.842Z,23.30
2019-05-22T08:21:39.173Z,25.37
2019-05-22T08:26:53.811Z,26.13
2019-05-22T08:31:50.899Z,26.15
2019-05-22T08:36:55.667Z,25.81
2019-05-22T08:42:02.127Z,25.67
2019-05-22T08:47:08.354Z,26.07
2019-05-22T08:52:22.905Z,28.59
2019-05-22T08:57:21.088Z,26.05
2019-05-22T09:02:25.982Z,24.06
2019-05-22T09:07:31.719Z,24.12
2019-05-22T09:12:36.625Z,23.33
2019-05-22T09:17:41.177Z,22.28
2019-05-22T09:22:46.711Z,21.47
2019-05-22T09:27:52.101Z,21.88
2019-05-22T09:32:58.214Z,24.35
2019-05-22T09:38:02.966Z,24.12
2019-05-22T09:43:07.869Z,24.65
2019-05-22T09:48:13.028Z,27.05
2019-05-22T09:53:18.127Z,26.72
2019-05-22T09:58:23.282Z,26.11
2019-05-22T10:03:28.273Z,24.92
2019-05-22T10:08:33.673Z,27.72
2019-05-22T10:13:38.353Z,28.80
2019-05-22T10:18:42.978Z,27.00
2019-05-22T10:23:47.880Z,25.60
2019-05-22T10:28:53.237Z,25.05
2019-05-22T10:33:57.937Z,24.41
2019-05-22T10:39:03.584Z,24.35
2019-05-22T10:44:08.587Z,24.08
2019-05-22T10:49:13.660Z,23.51
2019-05-22T10:54:18.367Z,25.42
2019-05-22T10:59:23.511Z,24.90
2019-05-22T11:04:29.760Z,24.43
2019-05-22T11:09:35.673Z,24.10
2019-05-22T11:14:40.632Z,23.83
2019-05-22T11:19:45.423Z,23.79
2019-05-22T11:24:50.158Z,23.71
2019-05-22T11:29:54.915Z,23.91
2019-05-22T11:34:59.586Z,24.08
2019-05-22T11:40:08.859Z,23.45
2019-05-22T11:45:16.325Z,23.76
2019-05-22T11:50:23.714Z,23.24
2019-05-22T11:55:44.292Z,23.59
2019-05-22T12:00:35.991Z,24.42
2019-05-22T12:05:40.774Z,24.43
2019-05-22T12:10:45.843Z,23.99
2019-05-22T12:15:50.673Z,25.15
2019-05-22T12:20:57.249Z,25.35
2019-05-22T12:26:01.880Z,25.31
2019-05-22T12:31:07.427Z,24.90
2019-05-22T12:36:14.162Z,24.24
2019-05-22T12:41:20.976Z,23.89
2019-05-22T12:46:27.262Z,24.15
2019-05-22T12:51:32.991Z,25.35
2019-05-22T12:56:37.910Z,24.85
2019-05-22T13:01:46.655Z,25.23
2019-05-22T13:06:52.235Z,25.56
2019-05-22T13:11:59.410Z,25.00
2019-05-22T13:17:06.361Z,25.76
2019-05-22T13:22:16.540Z,25.18
2019-05-22T13:27:22.761Z,25.72
2019-05-22T13:32:29.256Z,25.59
2019-05-22T13:37:34.277Z,25.68
2019-05-22T13:42:40.379Z,25.92
2019-05-22T13:47:45.036Z,25.73
2019-05-22T13:52:50.281Z,26.05
2019-05-22T13:57:55.440Z,26.32
2019-05-22T14:03:00.444Z,26.40
2019-05-22T14:08:08.194Z,26.15
2019-05-22T14:13:14.575Z,25.54
2019-05-22T14:18:19.613Z,25.50
2019-05-22T14:23:24.341Z,25.24
2019-05-22T14:28:30.727Z,25.31
2019-05-22T14:33:39.777Z,25.31
2019-05-22T14:38:43.215Z,25.55
2019-05-22T14:43:48.003Z,25.40
2019-05-22T14:48:52.735Z,25.38
2019-05-22T14:53:58.664Z,25.02
2019-05-22T14:59:04.794Z,24.62
2019-05-22T15:04:09.535Z,24.48
2019-05-22T15:09:14.298Z,24.40
2019-05-22T15:14:18.945Z,24.78
2019-05-22T15:19:24.097Z,24.09
2019-05-22T15:24:29.688Z,23.96
2019-05-22T15:29:34.328Z,23.80
2019-05-22T15:34:39.710Z,23.77
2019-05-22T15:39:45.110Z,23.83
2019-05-22T15:44:51.438Z,24.33
2019-05-22T15:49:56.668Z,24.90
2019-05-22T15:55:03.136Z,24.85
2019-05-22T16:00:10.502Z,24.32
2019-05-22T16:05:18.410Z,24.12
2019-05-22T16:10:23.958Z,23.82
2019-05-22T16:15:30.630Z,23.53
2019-05-22T16:20:37.414Z,20.50
2019-05-22T16:25:42.901Z,17.34
2019-05-22T16:30:47.999Z,16.47
2019-05-22T16:35:53.433Z,16.73
2019-05-22T16:40:58.448Z,16.57
2019-05-22T16:46:03.741Z,16.58
2019-05-22T16:51:09.947Z,16.57
2019-05-22T16:56:14.961Z,16.54
2019-05-22T17:01:21.796Z,16.58
2019-05-22T17:06:27.119Z,16.72
2019-05-22T17:11:33.354Z,16.75
2019-05-22T17:16:39.845Z,16.75
2019-05-22T17:21:46.073Z,16.74
2019-05-22T17:26:52.613Z,16.61
2019-05-22T17:31:58.402Z,16.53
2019-05-22T17:37:09.713Z,16.50
2019-05-22T17:42:20.852Z,16.48
2019-05-22T17:47:28.081Z,16.50
2019-05-22T17:52:32.798Z,16.40
2019-05-22T17:57:37.706Z,16.47
2019-05-22T18:02:43.947Z,16.62
2019-05-22T18:07:48.952Z,16.62
2019-05-22T18:12:54.003Z,16.70
2019-05-22T18:17:58.627Z,16.87
2019-05-22T18:23:04.209Z,16.87
2019-05-22T18:28:10.442Z,16.91
2019-05-22T18:33:16.279Z,16.90
2019-05-22T18:38:20.820Z,16.84
2019-05-22T18:43:25.362Z,16.36
2019-05-22T18:48:33.034Z,15.90
2019-05-22T18:53:36.453Z,15.32
2019-05-22T18:58:42.057Z,15.24
2019-05-22T19:03:46.653Z,15.29
2019-05-22T19:08:51.413Z,15.31
2019-05-22T19:13:56.421Z,15.39
2019-05-22T19:19:01.022Z,15.48
2019-05-22T19:24:05.913Z,15.23
2019-05-22T19:29:10.627Z,14.92
2019-05-22T19:34:17.086Z,14.83
2019-05-22T19:39:23.715Z,14.63
2019-05-22T19:44:29.112Z,14.64
2019-05-22T19:49:34.922Z,14.55
2019-05-22T19:54:45.667Z,14.58
2019-05-22T19:59:52.340Z,14.65
2019-05-22T20:05:00.408Z,14.54
2019-05-22T20:10:10.138Z,14.59
2019-05-22T20:15:16.104Z,14.48
2019-05-22T20:20:22.396Z,14.46
2019-05-22T20:25:28.359Z,14.38
2019-05-22T20:30:33.193Z,14.41
2019-05-22T20:35:38.155Z,14.35
2019-05-22T20:40:44.303Z,14.31
2019-05-22T20:45:51.171Z,14.20
2019-05-22T20:50:59.878Z,14.22
2019-05-22T20:56:05.423Z,14.24
2019-05-22T21:01:11.301Z,14.14
2019-05-22T21:06:17.252Z,14.20
2019-05-22T21:11:25.412Z,14.30
2019-05-22T21:16:30.759Z,14.43
2019-05-22T21:21:36.593Z,14.43
2019-05-22T21:26:42.736Z,14.41
2019-05-22T21:31:48.332Z,14.30
2019-05-22T21:36:53.973Z,14.27
2019-05-22T21:42:00.487Z,14.19
2019-05-22T21:47:06.747Z,14.17
2019-05-22T21:52:13.275Z,14.12
2019-05-22T21:57:18.574Z,14.18
2019-05-22T22:02:27.779Z,14.06
2019-05-22T22:07:35.224Z,14.08
2019-05-22T22:12:39.878Z,14.03
2019-05-22T22:17:46.370Z,13.95
2019-05-22T22:22:52.528Z,13.91
2019-05-22T22:27:58.328Z,13.85
2019-05-22T22:33:10.200Z,13.76
2019-05-22T22:38:15.989Z,13.81
2019-05-22T22:43:23.092Z,13.77
2019-05-22T22:48:32.390Z,13.78
2019-05-22T22:53:36.914Z,13.75
2019-05-22T22:58:42.649Z,13.78
2019-05-22T23:03:50.956Z,13.76
2019-05-22T23:08:55.961Z,13.84
2019-05-22T23:14:03.394Z,13.96
2019-05-22T23:19:11.330Z,14.09
2019-05-22T23:24:19.191Z,14.21
2019-05-22T23:29:25.098Z,14.21
2019-05-22T23:34:30.855Z,14.14
2019-05-22T23:39:36.365Z,14.12
2019-05-22T23:44:42.040Z,14.13
2019-05-22T23:49:46.965Z,14.12
2019-05-22T23:54:52.466Z,14.01
2019-05-22T23:59:58.978Z,13.86
